sensor_id;sensor_type;location;lat;lon;timestamp;temperature;humidity
11142;DHT22;5625;50.122;19.864;2023-08-07T00:00:31;15.50;99.90
11142;DHT22;5625;50.122;19.864;2023-08-07T00:03:00;15.50;99.90
11142;DHT22;5625;50.122;19.864;2023-08-07T00:05:29;15.50;99.90
11142;DHT22;5625;50.122;19.864;2023-08-07T00:07:57;15.50;99.90
11142;DHT22;5625;50.122;19.864;2023-08-07T00:10:25;15.50;99.90
11142;DHT22;5625;50.122;19.864;2023-08-07T00:12:57;15.50;99.90
11142;DHT22;5625;50.122;19.864;2023-08-07T00:15:28;15.50;99.90
11142;DHT22;5625;50.122;19.864;2023-08-07T00:17:56;15.50;99.90
11142;DHT22;5625;50.122;19.864;2023-08-07T00:20:26;15.50;99.90
11142;DHT22;5625;50.122;19.864;2023-08-07T00:22:54;15.50;99.90
11142;DHT22;5625;50.122;19.864;2023-08-07T00:25:22;15.50;99.90
11142;DHT22;5625;50.122;19.864;2023-08-07T00:27:50;15.50;99.90
11142;DHT22;5625;50.122;19.864;2023-08-07T00:30:18;15.50;99.90
11142;DHT22;5625;50.122;19.864;2023-08-07T00:32:47;15.50;99.90
11142;DHT22;5625;50.122;19.864;2023-08-07T00:35:15;15.50;99.90
11142;DHT22;5625;50.122;19.864;2023-08-07T00:37:44;15.50;99.90
11142;DHT22;5625;50.122;19.864;2023-08-07T00:40:12;15.50;99.90
11142;DHT22;5625;50.122;19.864;2023-08-07T00:42:40;15.60;99.90
11142;DHT22;5625;50.122;19.864;2023-08-07T00:45:09;15.60;99.90
11142;DHT22;5625;50.122;19.864;2023-08-07T00:47:38;15.60;99.90
11142;DHT22;5625;50.122;19.864;2023-08-07T00:50:08;15.60;99.90
11142;DHT22;5625;50.122;19.864;2023-08-07T00:52:36;15.60;99.90
11142;DHT22;5625;50.122;19.864;2023-08-07T00:55:06;15.60;99.90
11142;DHT22;5625;50.122;19.864;2023-08-07T00:57:34;15.60;99.90
11142;DHT22;5625;50.122;19.864;2023-08-07T01:00:03;15.60;99.90
11142;DHT22;5625;50.122;19.864;2023-08-07T01:02:32;15.60;99.90
11142;DHT22;5625;50.122;19.864;2023-08-07T01:05:00;15.60;99.90
11142;DHT22;5625;50.122;19.864;2023-08-07T01:07:29;15.60;99.90
11142;DHT22;5625;50.122;19.864;2023-08-07T01:09:57;15.60;99.90
11142;DHT22;5625;50.122;19.864;2023-08-07T01:12:35;15.60;99.90
11142;DHT22;5625;50.122;19.864;2023-08-07T01:15:10;15.60;99.90
11142;DHT22;5625;50.122;19.864;2023-08-07T01:17:42;15.60;99.90
11142;DHT22;5625;50.122;19.864;2023-08-07T01:20:11;15.60;99.90
11142;DHT22;5625;50.122;19.864;2023-08-07T01:22:41;15.60;99.90
11142;DHT22;5625;50.122;19.864;2023-08-07T01:25:09;15.60;99.90
11142;DHT22;5625;50.122;19.864;2023-08-07T01:27:40;15.60;99.90
11142;DHT22;5625;50.122;19.864;2023-08-07T01:30:14;15.60;99.90
11142;DHT22;5625;50.122;19.864;2023-08-07T01:32:55;15.60;99.90
11142;DHT22;5625;50.122;19.864;2023-08-07T01:35:29;15.60;99.90
11142;DHT22;5625;50.122;19.864;2023-08-07T01:37:59;15.60;99.90
11142;DHT22;5625;50.122;19.864;2023-08-07T01:40:30;15.60;99.90
11142;DHT22;5625;50.122;19.864;2023-08-07T01:42:58;15.60;99.90
11142;DHT22;5625;50.122;19.864;2023-08-07T01:45:27;15.50;99.90
11142;DHT22;5625;50.122;19.864;2023-08-07T01:47:56;15.60;99.90
11142;DHT22;5625;50.122;19.864;2023-08-07T01:50:25;15.50;99.90
11142;DHT22;5625;50.122;19.864;2023-08-07T01:52:53;15.60;99.90
11142;DHT22;5625;50.122;19.864;2023-08-07T01:55:23;15.60;99.90
11142;DHT22;5625;50.122;19.864;2023-08-07T01:57:51;15.60;99.90
11142;DHT22;5625;50.122;19.864;2023-08-07T02:00:20;15.60;99.90
11142;DHT22;5625;50.122;19.864;2023-08-07T02:02:48;15.60;99.90
11142;DHT22;5625;50.122;19.864;2023-08-07T02:05:17;15.60;99.90
11142;DHT22;5625;50.122;19.864;2023-08-07T02:07:45;15.60;99.90
11142;DHT22;5625;50.122;19.864;2023-08-07T02:10:13;15.60;99.90
11142;DHT22;5625;50.122;19.864;2023-08-07T02:12:42;15.60;99.90
11142;DHT22;5625;50.122;19.864;2023-08-07T02:15:10;15.60;99.90
11142;DHT22;5625;50.122;19.864;2023-08-07T02:17:38;15.60;99.90
11142;DHT22;5625;50.122;19.864;2023-08-07T02:20:09;15.60;99.90
11142;DHT22;5625;50.122;19.864;2023-08-07T02:22:38;15.60;99.90
11142;DHT22;5625;50.122;19.864;2023-08-07T02:25:09;15.60;99.90
11142;DHT22;5625;50.122;19.864;2023-08-07T02:27:37;15.60;99.90
11142;DHT22;5625;50.122;19.864;2023-08-07T02:30:07;15.60;99.90
11142;DHT22;5625;50.122;19.864;2023-08-07T02:32:36;15.60;99.90
11142;DHT22;5625;50.122;19.864;2023-08-07T02:35:04;15.60;99.90
11142;DHT22;5625;50.122;19.864;2023-08-07T02:37:32;15.60;99.90
11142;DHT22;5625;50.122;19.864;2023-08-07T02:40:00;15.60;99.90
11142;DHT22;5625;50.122;19.864;2023-08-07T02:42:28;15.60;99.90
11142;DHT22;5625;50.122;19.864;2023-08-07T02:44:56;15.50;99.90
11142;DHT22;5625;50.122;19.864;2023-08-07T02:47:26;15.60;99.90
11142;DHT22;5625;50.122;19.864;2023-08-07T02:49:54;15.60;99.90
11142;DHT22;5625;50.122;19.864;2023-08-07T02:52:22;15.50;99.90
11142;DHT22;5625;50.122;19.864;2023-08-07T02:54:50;15.50;99.90
11142;DHT22;5625;50.122;19.864;2023-08-07T02:57:18;15.60;99.90
11142;DHT22;5625;50.122;19.864;2023-08-07T02:59:46;15.60;99.90
11142;DHT22;5625;50.122;19.864;2023-08-07T03:02:14;15.60;99.90
11142;DHT22;5625;50.122;19.864;2023-08-07T03:04:44;15.60;99.90
11142;DHT22;5625;50.122;19.864;2023-08-07T03:07:12;15.60;99.90
11142;DHT22;5625;50.122;19.864;2023-08-07T03:09:40;15.60;99.90
11142;DHT22;5625;50.122;19.864;2023-08-07T03:12:08;15.60;99.90
11142;DHT22;5625;50.122;19.864;2023-08-07T03:14:37;15.60;99.90
11142;DHT22;5625;50.122;19.864;2023-08-07T03:17:05;15.60;99.90
11142;DHT22;5625;50.122;19.864;2023-08-07T03:19:33;15.60;99.90
11142;DHT22;5625;50.122;19.864;2023-08-07T03:22:03;15.60;99.90
11142;DHT22;5625;50.122;19.864;2023-08-07T03:24:31;15.60;99.90
11142;DHT22;5625;50.122;19.864;2023-08-07T03:26:59;15.60;99.90
11142;DHT22;5625;50.122;19.864;2023-08-07T03:29:27;15.60;99.90
11142;DHT22;5625;50.122;19.864;2023-08-07T03:31:56;15.50;99.90
11142;DHT22;5625;50.122;19.864;2023-08-07T03:34:24;15.60;99.90
11142;DHT22;5625;50.122;19.864;2023-08-07T03:36:52;15.60;99.90
11142;DHT22;5625;50.122;19.864;2023-08-07T03:39:22;15.50;99.90
11142;DHT22;5625;50.122;19.864;2023-08-07T03:41:53;15.60;99.90
11142;DHT22;5625;50.122;19.864;2023-08-07T03:44:21;15.60;99.90
11142;DHT22;5625;50.122;19.864;2023-08-07T03:46:49;15.60;99.90
11142;DHT22;5625;50.122;19.864;2023-08-07T03:49:17;15.60;99.90
11142;DHT22;5625;50.122;19.864;2023-08-07T03:51:45;15.60;99.90
11142;DHT22;5625;50.122;19.864;2023-08-07T03:54:13;15.60;99.90
11142;DHT22;5625;50.122;19.864;2023-08-07T03:56:43;15.60;99.90
11142;DHT22;5625;50.122;19.864;2023-08-07T03:59:13;15.60;99.90
11142;DHT22;5625;50.122;19.864;2023-08-07T04:01:41;15.60;99.90
11142;DHT22;5625;50.122;19.864;2023-08-07T04:04:09;15.60;99.90
11142;DHT22;5625;50.122;19.864;2023-08-07T04:06:37;15.70;99.90
11142;DHT22;5625;50.122;19.864;2023-08-07T04:09:09;15.70;99.90
11142;DHT22;5625;50.122;19.864;2023-08-07T04:11:37;15.70;99.90
11142;DHT22;5625;50.122;19.864;2023-08-07T04:14:07;15.70;99.90
11142;DHT22;5625;50.122;19.864;2023-08-07T04:16:35;15.70;99.90
11142;DHT22;5625;50.122;19.864;2023-08-07T04:19:03;15.70;99.90
11142;DHT22;5625;50.122;19.864;2023-08-07T04:21:33;15.70;99.90
11142;DHT22;5625;50.122;19.864;2023-08-07T04:24:01;15.80;99.90
11142;DHT22;5625;50.122;19.864;2023-08-07T04:26:34;15.80;99.90
11142;DHT22;5625;50.122;19.864;2023-08-07T04:29:03;15.80;99.90
11142;DHT22;5625;50.122;19.864;2023-08-07T04:31:32;15.80;99.90
11142;DHT22;5625;50.122;19.864;2023-08-07T04:34:01;15.80;99.90
11142;DHT22;5625;50.122;19.864;2023-08-07T04:36:29;15.80;99.90
11142;DHT22;5625;50.122;19.864;2023-08-07T04:38:57;15.80;99.90
11142;DHT22;5625;50.122;19.864;2023-08-07T04:41:25;15.80;99.90
11142;DHT22;5625;50.122;19.864;2023-08-07T04:43:53;15.90;99.90
11142;DHT22;5625;50.122;19.864;2023-08-07T04:46:21;15.90;99.90
11142;DHT22;5625;50.122;19.864;2023-08-07T04:48:51;15.90;99.90
11142;DHT22;5625;50.122;19.864;2023-08-07T04:51:19;15.90;99.90
11142;DHT22;5625;50.122;19.864;2023-08-07T04:53:47;15.90;99.90
11142;DHT22;5625;50.122;19.864;2023-08-07T04:56:17;15.90;99.90
11142;DHT22;5625;50.122;19.864;2023-08-07T04:58:45;15.90;99.90
11142;DHT22;5625;50.122;19.864;2023-08-07T05:01:13;15.90;99.90
11142;DHT22;5625;50.122;19.864;2023-08-07T05:03:42;15.90;99.90
11142;DHT22;5625;50.122;19.864;2023-08-07T05:06:12;15.90;99.90
11142;DHT22;5625;50.122;19.864;2023-08-07T05:08:40;16.00;99.90
11142;DHT22;5625;50.122;19.864;2023-08-07T05:11:08;16.00;99.90
11142;DHT22;5625;50.122;19.864;2023-08-07T05:13:36;16.00;99.90
11142;DHT22;5625;50.122;19.864;2023-08-07T05:16:04;16.00;99.90
11142;DHT22;5625;50.122;19.864;2023-08-07T05:18:32;16.10;99.90
11142;DHT22;5625;50.122;19.864;2023-08-07T05:21:00;16.00;99.90
11142;DHT22;5625;50.122;19.864;2023-08-07T05:23:31;16.10;99.90
11142;DHT22;5625;50.122;19.864;2023-08-07T05:25:59;16.00;99.90
11142;DHT22;5625;50.122;19.864;2023-08-07T05:28:28;16.00;99.90
11142;DHT22;5625;50.122;19.864;2023-08-07T05:30:56;16.00;99.90
11142;DHT22;5625;50.122;19.864;2023-08-07T05:33:24;16.10;99.90
11142;DHT22;5625;50.122;19.864;2023-08-07T05:35:53;16.00;99.90
11142;DHT22;5625;50.122;19.864;2023-08-07T05:38:22;16.00;99.90
11142;DHT22;5625;50.122;19.864;2023-08-07T05:40:51;16.00;99.90
11142;DHT22;5625;50.122;19.864;2023-08-07T05:43:19;16.00;99.90
11142;DHT22;5625;50.122;19.864;2023-08-07T05:45:47;16.00;99.90
11142;DHT22;5625;50.122;19.864;2023-08-07T05:48:16;16.00;99.90
11142;DHT22;5625;50.122;19.864;2023-08-07T05:50:44;16.00;99.90
11142;DHT22;5625;50.122;19.864;2023-08-07T05:53:12;16.00;99.90
11142;DHT22;5625;50.122;19.864;2023-08-07T05:55:40;16.00;99.90
11142;DHT22;5625;50.122;19.864;2023-08-07T05:58:10;16.00;99.90
11142;DHT22;5625;50.122;19.864;2023-08-07T06:00:38;16.00;99.90
11142;DHT22;5625;50.122;19.864;2023-08-07T06:03:06;16.00;99.90
11142;DHT22;5625;50.122;19.864;2023-08-07T06:05:35;16.00;99.90
11142;DHT22;5625;50.122;19.864;2023-08-07T06:08:03;16.00;99.90
11142;DHT22;5625;50.122;19.864;2023-08-07T06:10:34;16.00;99.90
11142;DHT22;5625;50.122;19.864;2023-08-07T06:13:02;16.00;99.90
11142;DHT22;5625;50.122;19.864;2023-08-07T06:15:32;16.00;99.90
11142;DHT22;5625;50.122;19.864;2023-08-07T06:18:01;16.10;99.90
11142;DHT22;5625;50.122;19.864;2023-08-07T06:20:29;16.00;99.90
11142;DHT22;5625;50.122;19.864;2023-08-07T06:22:57;16.00;99.90
11142;DHT22;5625;50.122;19.864;2023-08-07T06:25:25;16.00;99.90
11142;DHT22;5625;50.122;19.864;2023-08-07T06:27:54;16.00;99.90
11142;DHT22;5625;50.122;19.864;2023-08-07T06:30:22;16.00;99.90
11142;DHT22;5625;50.122;19.864;2023-08-07T06:32:51;16.00;99.90
11142;DHT22;5625;50.122;19.864;2023-08-07T06:35:19;16.10;99.90
11142;DHT22;5625;50.122;19.864;2023-08-07T06:37:47;16.10;99.90
11142;DHT22;5625;50.122;19.864;2023-08-07T06:40:16;16.00;99.90
11142;DHT22;5625;50.122;19.864;2023-08-07T06:42:44;16.00;99.90
11142;DHT22;5625;50.122;19.864;2023-08-07T06:45:12;16.00;99.90
11142;DHT22;5625;50.122;19.864;2023-08-07T06:47:40;16.00;99.90
11142;DHT22;5625;50.122;19.864;2023-08-07T06:50:10;16.00;99.90
11142;DHT22;5625;50.122;19.864;2023-08-07T06:52:38;15.90;99.90
11142;DHT22;5625;50.122;19.864;2023-08-07T06:55:07;16.00;99.90
11142;DHT22;5625;50.122;19.864;2023-08-07T06:57:35;16.00;99.90
11142;DHT22;5625;50.122;19.864;2023-08-07T07:00:04;16.00;99.90
11142;DHT22;5625;50.122;19.864;2023-08-07T07:02:32;16.00;99.90
11142;DHT22;5625;50.122;19.864;2023-08-07T07:05:00;16.00;99.90
11142;DHT22;5625;50.122;19.864;2023-08-07T07:07:30;16.00;99.90
11142;DHT22;5625;50.122;19.864;2023-08-07T07:09:58;16.00;99.90
11142;DHT22;5625;50.122;19.864;2023-08-07T07:12:28;16.00;99.90
11142;DHT22;5625;50.122;19.864;2023-08-07T07:14:56;16.00;99.90
11142;DHT22;5625;50.122;19.864;2023-08-07T07:17:24;16.10;99.90
11142;DHT22;5625;50.122;19.864;2023-08-07T07:19:55;16.10;99.90
11142;DHT22;5625;50.122;19.864;2023-08-07T07:22:24;16.10;99.90
11142;DHT22;5625;50.122;19.864;2023-08-07T07:24:53;16.10;99.90
11142;DHT22;5625;50.122;19.864;2023-08-07T07:27:21;16.20;99.90
11142;DHT22;5625;50.122;19.864;2023-08-07T07:29:52;16.20;99.90
11142;DHT22;5625;50.122;19.864;2023-08-07T07:32:20;16.30;99.90
11142;DHT22;5625;50.122;19.864;2023-08-07T07:34:48;16.40;99.90
11142;DHT22;5625;50.122;19.864;2023-08-07T07:37:16;16.50;99.90
11142;DHT22;5625;50.122;19.864;2023-08-07T07:39:44;16.50;99.90
11142;DHT22;5625;50.122;19.864;2023-08-07T07:42:16;16.50;99.90
11142;DHT22;5625;50.122;19.864;2023-08-07T07:44:45;16.60;99.90
11142;DHT22;5625;50.122;19.864;2023-08-07T07:47:13;16.60;99.90
11142;DHT22;5625;50.122;19.864;2023-08-07T07:49:45;16.60;99.90
11142;DHT22;5625;50.122;19.864;2023-08-07T07:52:14;16.60;99.90
11142;DHT22;5625;50.122;19.864;2023-08-07T07:54:42;16.70;99.90
11142;DHT22;5625;50.122;19.864;2023-08-07T07:57:12;16.70;99.90
11142;DHT22;5625;50.122;19.864;2023-08-07T07:59:41;16.70;99.90
11142;DHT22;5625;50.122;19.864;2023-08-07T08:02:10;16.70;99.90
11142;DHT22;5625;50.122;19.864;2023-08-07T08:04:38;16.70;99.90
11142;DHT22;5625;50.122;19.864;2023-08-07T08:07:06;16.80;99.90
11142;DHT22;5625;50.122;19.864;2023-08-07T08:09:34;16.70;99.90
11142;DHT22;5625;50.122;19.864;2023-08-07T08:12:03;16.60;99.90
11142;DHT22;5625;50.122;19.864;2023-08-07T08:14:31;16.60;99.90
11142;DHT22;5625;50.122;19.864;2023-08-07T08:17:21;16.60;99.90
11142;DHT22;5625;50.122;19.864;2023-08-07T08:19:49;16.60;99.90
11142;DHT22;5625;50.122;19.864;2023-08-07T08:22:18;16.60;99.90
11142;DHT22;5625;50.122;19.864;2023-08-07T08:24:46;16.60;99.90
11142;DHT22;5625;50.122;19.864;2023-08-07T08:27:15;16.60;99.90
11142;DHT22;5625;50.122;19.864;2023-08-07T08:29:44;16.70;99.90
11142;DHT22;5625;50.122;19.864;2023-08-07T08:32:12;16.70;99.90
11142;DHT22;5625;50.122;19.864;2023-08-07T08:34:42;16.70;99.90
11142;DHT22;5625;50.122;19.864;2023-08-07T08:37:10;16.70;99.90
11142;DHT22;5625;50.122;19.864;2023-08-07T08:39:38;16.70;99.90
11142;DHT22;5625;50.122;19.864;2023-08-07T08:42:09;16.70;99.90
11142;DHT22;5625;50.122;19.864;2023-08-07T08:44:39;16.70;99.90
11142;DHT22;5625;50.122;19.864;2023-08-07T08:47:08;16.70;99.90
11142;DHT22;5625;50.122;19.864;2023-08-07T08:49:49;16.70;99.90
11142;DHT22;5625;50.122;19.864;2023-08-07T08:52:21;16.80;99.90
11142;DHT22;5625;50.122;19.864;2023-08-07T08:54:49;16.80;99.90
11142;DHT22;5625;50.122;19.864;2023-08-07T08:57:18;16.70;99.90
11142;DHT22;5625;50.122;19.864;2023-08-07T08:59:46;16.80;99.90
11142;DHT22;5625;50.122;19.864;2023-08-07T09:02:14;16.80;99.90
11142;DHT22;5625;50.122;19.864;2023-08-07T09:04:43;16.90;99.90
11142;DHT22;5625;50.122;19.864;2023-08-07T09:07:15;16.90;99.90
11142;DHT22;5625;50.122;19.864;2023-08-07T09:09:44;16.90;99.90
11142;DHT22;5625;50.122;19.864;2023-08-07T09:12:19;16.90;99.90
11142;DHT22;5625;50.122;19.864;2023-08-07T09:14:51;17.00;99.90
11142;DHT22;5625;50.122;19.864;2023-08-07T09:17:23;17.10;99.90
11142;DHT22;5625;50.122;19.864;2023-08-07T09:19:52;17.20;99.90
11142;DHT22;5625;50.122;19.864;2023-08-07T09:22:22;17.20;99.90
11142;DHT22;5625;50.122;19.864;2023-08-07T09:24:50;17.20;99.90
11142;DHT22;5625;50.122;19.864;2023-08-07T09:27:18;17.20;99.90
11142;DHT22;5625;50.122;19.864;2023-08-07T09:29:47;17.20;99.90
11142;DHT22;5625;50.122;19.864;2023-08-07T09:32:15;17.30;99.90
11142;DHT22;5625;50.122;19.864;2023-08-07T09:34:45;17.30;99.90
11142;DHT22;5625;50.122;19.864;2023-08-07T09:37:14;17.30;99.90
11142;DHT22;5625;50.122;19.864;2023-08-07T09:39:43;17.40;99.90
11142;DHT22;5625;50.122;19.864;2023-08-07T09:42:13;17.40;99.90
11142;DHT22;5625;50.122;19.864;2023-08-07T09:44:42;17.40;99.90
11142;DHT22;5625;50.122;19.864;2023-08-07T09:47:12;17.50;99.90
11142;DHT22;5625;50.122;19.864;2023-08-07T09:49:41;17.50;99.90
11142;DHT22;5625;50.122;19.864;2023-08-07T09:52:12;17.60;99.90
11142;DHT22;5625;50.122;19.864;2023-08-07T09:54:43;17.60;99.90
11142;DHT22;5625;50.122;19.864;2023-08-07T09:57:11;17.70;99.90
11142;DHT22;5625;50.122;19.864;2023-08-07T09:59:40;17.90;99.90
11142;DHT22;5625;50.122;19.864;2023-08-07T10:02:08;18.10;99.90
11142;DHT22;5625;50.122;19.864;2023-08-07T10:04:38;18.10;99.90
11142;DHT22;5625;50.122;19.864;2023-08-07T10:07:07;18.20;99.90
11142;DHT22;5625;50.122;19.864;2023-08-07T10:09:35;18.30;99.90
11142;DHT22;5625;50.122;19.864;2023-08-07T10:12:05;18.50;99.90
11142;DHT22;5625;50.122;19.864;2023-08-07T10:14:34;18.70;99.90
11142;DHT22;5625;50.122;19.864;2023-08-07T10:17:02;18.70;99.90
11142;DHT22;5625;50.122;19.864;2023-08-07T10:19:33;18.70;99.90
11142;DHT22;5625;50.122;19.864;2023-08-07T10:22:03;18.60;98.70
11142;DHT22;5625;50.122;19.864;2023-08-07T10:24:31;18.60;99.90
11142;DHT22;5625;50.122;19.864;2023-08-07T10:27:01;18.60;99.90
11142;DHT22;5625;50.122;19.864;2023-08-07T10:29:32;18.70;99.90
11142;DHT22;5625;50.122;19.864;2023-08-07T10:32:02;18.70;99.90
11142;DHT22;5625;50.122;19.864;2023-08-07T10:34:33;18.70;99.90
11142;DHT22;5625;50.122;19.864;2023-08-07T10:37:01;18.80;99.90
11142;DHT22;5625;50.122;19.864;2023-08-07T10:39:29;18.90;99.90
11142;DHT22;5625;50.122;19.864;2023-08-07T10:41:57;18.90;99.90
11142;DHT22;5625;50.122;19.864;2023-08-07T10:44:30;18.90;99.90
11142;DHT22;5625;50.122;19.864;2023-08-07T10:47:01;18.90;99.90
11142;DHT22;5625;50.122;19.864;2023-08-07T10:49:33;19.00;99.90
11142;DHT22;5625;50.122;19.864;2023-08-07T10:52:04;19.00;99.90
11142;DHT22;5625;50.122;19.864;2023-08-07T10:54:37;19.10;99.90
11142;DHT22;5625;50.122;19.864;2023-08-07T10:57:14;19.20;99.90
11142;DHT22;5625;50.122;19.864;2023-08-07T11:00:01;19.30;99.90
11142;DHT22;5625;50.122;19.864;2023-08-07T11:02:41;19.30;99.90
11142;DHT22;5625;50.122;19.864;2023-08-07T11:05:15;19.30;99.90
11142;DHT22;5625;50.122;19.864;2023-08-07T11:07:48;19.30;99.90
11142;DHT22;5625;50.122;19.864;2023-08-07T11:10:16;19.30;99.90
11142;DHT22;5625;50.122;19.864;2023-08-07T11:12:44;19.40;99.90
11142;DHT22;5625;50.122;19.864;2023-08-07T11:15:13;19.30;99.90
11142;DHT22;5625;50.122;19.864;2023-08-07T11:17:43;19.30;99.90
11142;DHT22;5625;50.122;19.864;2023-08-07T11:20:13;19.30;99.90
11142;DHT22;5625;50.122;19.864;2023-08-07T11:22:41;19.30;99.90
11142;DHT22;5625;50.122;19.864;2023-08-07T11:25:11;19.50;99.90
11142;DHT22;5625;50.122;19.864;2023-08-07T11:27:43;19.70;99.90
11142;DHT22;5625;50.122;19.864;2023-08-07T11:30:12;20.00;99.90
11142;DHT22;5625;50.122;19.864;2023-08-07T11:32:40;20.30;99.90
11142;DHT22;5625;50.122;19.864;2023-08-07T11:35:11;20.70;99.90
11142;DHT22;5625;50.122;19.864;2023-08-07T11:37:45;20.90;99.90
11142;DHT22;5625;50.122;19.864;2023-08-07T11:40:14;21.00;99.90
11142;DHT22;5625;50.122;19.864;2023-08-07T11:42:42;21.00;99.90
11142;DHT22;5625;50.122;19.864;2023-08-07T11:45:10;21.10;99.90
11142;DHT22;5625;50.122;19.864;2023-08-07T11:47:39;21.20;99.90
11142;DHT22;5625;50.122;19.864;2023-08-07T11:50:08;21.20;99.90
11142;DHT22;5625;50.122;19.864;2023-08-07T11:52:39;21.20;99.90
11142;DHT22;5625;50.122;19.864;2023-08-07T11:55:08;21.10;99.90
11142;DHT22;5625;50.122;19.864;2023-08-07T11:57:39;20.90;99.90
11142;DHT22;5625;50.122;19.864;2023-08-07T12:00:10;20.70;99.90
11142;DHT22;5625;50.122;19.864;2023-08-07T12:02:42;20.40;99.90
11142;DHT22;5625;50.122;19.864;2023-08-07T12:05:11;20.20;99.90
11142;DHT22;5625;50.122;19.864;2023-08-07T12:07:40;20.00;99.90
11142;DHT22;5625;50.122;19.864;2023-08-07T12:10:10;19.70;99.90
11142;DHT22;5625;50.122;19.864;2023-08-07T12:12:38;19.70;99.90
11142;DHT22;5625;50.122;19.864;2023-08-07T12:15:08;19.60;99.90
11142;DHT22;5625;50.122;19.864;2023-08-07T12:17:36;19.50;99.90
11142;DHT22;5625;50.122;19.864;2023-08-07T12:20:05;19.50;99.90
11142;DHT22;5625;50.122;19.864;2023-08-07T12:22:37;19.50;99.90
11142;DHT22;5625;50.122;19.864;2023-08-07T12:25:07;19.40;99.90
11142;DHT22;5625;50.122;19.864;2023-08-07T12:27:35;19.40;99.90
11142;DHT22;5625;50.122;19.864;2023-08-07T12:30:04;19.40;99.90
11142;DHT22;5625;50.122;19.864;2023-08-07T12:32:33;19.30;99.90
11142;DHT22;5625;50.122;19.864;2023-08-07T12:35:01;19.30;99.90
11142;DHT22;5625;50.122;19.864;2023-08-07T12:37:32;19.30;99.90
11142;DHT22;5625;50.122;19.864;2023-08-07T12:40:00;19.30;99.90
11142;DHT22;5625;50.122;19.864;2023-08-07T12:42:34;19.30;99.90
11142;DHT22;5625;50.122;19.864;2023-08-07T12:45:02;19.30;99.90
11142;DHT22;5625;50.122;19.864;2023-08-07T12:47:30;19.30;99.90
11142;DHT22;5625;50.122;19.864;2023-08-07T12:49:59;19.30;99.90
11142;DHT22;5625;50.122;19.864;2023-08-07T12:52:27;19.30;99.90
11142;DHT22;5625;50.122;19.864;2023-08-07T12:54:55;19.40;99.90
11142;DHT22;5625;50.122;19.864;2023-08-07T12:57:23;19.40;99.90
11142;DHT22;5625;50.122;19.864;2023-08-07T12:59:56;19.50;99.90
11142;DHT22;5625;50.122;19.864;2023-08-07T13:02:24;19.70;99.90
11142;DHT22;5625;50.122;19.864;2023-08-07T13:04:55;19.80;99.90
11142;DHT22;5625;50.122;19.864;2023-08-07T13:07:24;19.80;99.90
11142;DHT22;5625;50.122;19.864;2023-08-07T13:09:55;19.80;99.90
11142;DHT22;5625;50.122;19.864;2023-08-07T13:12:23;19.70;99.90
11142;DHT22;5625;50.122;19.864;2023-08-07T13:14:52;19.60;99.90
11142;DHT22;5625;50.122;19.864;2023-08-07T13:17:21;19.70;99.90
11142;DHT22;5625;50.122;19.864;2023-08-07T13:19:49;19.70;99.90
11142;DHT22;5625;50.122;19.864;2023-08-07T13:22:18;19.80;99.90
11142;DHT22;5625;50.122;19.864;2023-08-07T13:24:46;19.80;99.90
11142;DHT22;5625;50.122;19.864;2023-08-07T13:27:14;19.80;99.90
11142;DHT22;5625;50.122;19.864;2023-08-07T13:29:43;19.80;99.90
11142;DHT22;5625;50.122;19.864;2023-08-07T13:32:11;19.70;99.90
11142;DHT22;5625;50.122;19.864;2023-08-07T13:34:41;19.60;99.90
11142;DHT22;5625;50.122;19.864;2023-08-07T13:37:09;19.60;99.90
11142;DHT22;5625;50.122;19.864;2023-08-07T13:39:37;19.50;99.90
11142;DHT22;5625;50.122;19.864;2023-08-07T13:42:06;19.60;99.90
11142;DHT22;5625;50.122;19.864;2023-08-07T13:44:34;19.60;99.90
11142;DHT22;5625;50.122;19.864;2023-08-07T13:47:03;19.70;99.90
11142;DHT22;5625;50.122;19.864;2023-08-07T13:49:33;19.70;99.90
11142;DHT22;5625;50.122;19.864;2023-08-07T13:52:03;19.70;99.90
11142;DHT22;5625;50.122;19.864;2023-08-07T13:54:31;19.70;99.90
11142;DHT22;5625;50.122;19.864;2023-08-07T13:56:59;19.70;99.90
11142;DHT22;5625;50.122;19.864;2023-08-07T13:59:28;19.50;99.90
11142;DHT22;5625;50.122;19.864;2023-08-07T14:01:56;19.50;99.90
11142;DHT22;5625;50.122;19.864;2023-08-07T14:04:24;19.40;99.90
11142;DHT22;5625;50.122;19.864;2023-08-07T14:06:53;19.40;99.90
11142;DHT22;5625;50.122;19.864;2023-08-07T14:09:22;19.40;99.90
11142;DHT22;5625;50.122;19.864;2023-08-07T14:11:51;19.40;99.90
11142;DHT22;5625;50.122;19.864;2023-08-07T14:14:19;19.30;99.90
11142;DHT22;5625;50.122;19.864;2023-08-07T14:16:47;19.20;99.90
11142;DHT22;5625;50.122;19.864;2023-08-07T14:19:15;19.20;99.90
11142;DHT22;5625;50.122;19.864;2023-08-07T14:21:43;19.10;99.90
11142;DHT22;5625;50.122;19.864;2023-08-07T14:24:14;19.10;99.90
11142;DHT22;5625;50.122;19.864;2023-08-07T14:26:44;19.10;99.90
11142;DHT22;5625;50.122;19.864;2023-08-07T14:29:14;19.20;99.90
11142;DHT22;5625;50.122;19.864;2023-08-07T14:31:42;19.10;99.90
11142;DHT22;5625;50.122;19.864;2023-08-07T14:34:10;19.00;99.90
11142;DHT22;5625;50.122;19.864;2023-08-07T14:36:38;19.00;99.90
11142;DHT22;5625;50.122;19.864;2023-08-07T14:39:07;19.00;99.90
11142;DHT22;5625;50.122;19.864;2023-08-07T14:41:35;18.90;99.90
11142;DHT22;5625;50.122;19.864;2023-08-07T14:44:05;18.90;99.90
11142;DHT22;5625;50.122;19.864;2023-08-07T14:46:33;18.90;99.90
11142;DHT22;5625;50.122;19.864;2023-08-07T14:49:01;18.90;99.90
11142;DHT22;5625;50.122;19.864;2023-08-07T14:51:29;18.80;99.90
11142;DHT22;5625;50.122;19.864;2023-08-07T14:53:57;18.80;99.90
11142;DHT22;5625;50.122;19.864;2023-08-07T14:56:27;18.80;99.90
11142;DHT22;5625;50.122;19.864;2023-08-07T14:58:55;18.70;99.90
11142;DHT22;5625;50.122;19.864;2023-08-07T15:01:24;18.70;99.90
11142;DHT22;5625;50.122;19.864;2023-08-07T15:03:52;18.70;99.90
11142;DHT22;5625;50.122;19.864;2023-08-07T15:06:21;18.70;99.90
11142;DHT22;5625;50.122;19.864;2023-08-07T15:08:49;18.70;99.90
11142;DHT22;5625;50.122;19.864;2023-08-07T15:11:17;18.60;99.90
11142;DHT22;5625;50.122;19.864;2023-08-07T15:13:48;18.60;99.90
11142;DHT22;5625;50.122;19.864;2023-08-07T15:16:16;18.60;99.90
11142;DHT22;5625;50.122;19.864;2023-08-07T15:18:46;18.60;99.90
11142;DHT22;5625;50.122;19.864;2023-08-07T15:21:14;18.60;99.90
11142;DHT22;5625;50.122;19.864;2023-08-07T15:23:42;18.50;99.90
11142;DHT22;5625;50.122;19.864;2023-08-07T15:26:10;18.50;99.90
11142;DHT22;5625;50.122;19.864;2023-08-07T15:28:38;18.50;99.90
11142;DHT22;5625;50.122;19.864;2023-08-07T15:31:09;18.40;99.90
11142;DHT22;5625;50.122;19.864;2023-08-07T15:33:37;18.50;99.90
11142;DHT22;5625;50.122;19.864;2023-08-07T15:36:06;18.50;99.90
11142;DHT22;5625;50.122;19.864;2023-08-07T15:38:36;18.50;99.90
11142;DHT22;5625;50.122;19.864;2023-08-07T15:41:05;18.40;99.90